Time;durP1;ratioP1;P1;durP2;ratioP2;P2;SDS_P1;SDS_P2;PMS_P1;PMS_P2;Temp;Humidity;BMP_temperature;BMP_pressure;BME280_temperature;BME280_humidity;BME280_pressure;Samples;Min_cycle;Max_cycle;Signal;HPM_P1;HPM_P2
2023/01/27 00:00:34;;;;;;;16.05;7.07;;;;;;;;;;4971284;28;20051;-71
2023/01/27 00:03:01;;;;;;;16.92;7.57;;;;;;;;;;4970828;28;20050;-78
2023/01/27 00:05:28;;;;;;;13.75;6.90;;;;;;;;;;4971492;28;20054;-76
2023/01/27 00:07:57;;;;;;;22.60;7.13;;;;;;;;;;4970210;28;20043;-78
2023/01/27 00:10:25;;;;;;;23.75;6.90;;;;;;;;;;4969405;28;20051;-77
2023/01/27 00:15:38;;;;;;;20.67;6.28;;;;;;;;;;4970931;28;20458;-77
2023/01/27 00:18:06;;;;;;;18.48;5.03;;;;;;;;;;4973968;28;20055;-78
2023/01/27 00:26:06;;;;;;;8.57;3.80;;;;;;;;;;4968910;28;20058;-76
2023/01/27 00:28:34;;;;;;;8.90;4.22;;;;;;;;;;4966743;28;20122;-77
2023/01/27 00:31:02;;;;;;;14.48;3.70;;;;;;;;;;4967091;28;20059;-78
2023/01/27 00:33:28;;;;;;;13.15;4.20;;;;;;;;;;4963781;28;20051;-77
2023/01/27 00:36:00;;;;;;;9.85;4.00;;;;;;;;;;4971221;28;20047;-77
2023/01/27 00:38:27;;;;;;;10.82;4.18;;;;;;;;;;4958732;28;20062;-76
2023/01/27 00:43:41;;;;;;;9.65;3.90;;;;;;;;;;4970619;28;20141;-76
2023/01/27 00:46:09;;;;;;;20.25;4.57;;;;;;;;;;4959532;28;20058;-77
2023/01/27 00:48:36;;;;;;;16.17;4.50;;;;;;;;;;4958310;28;20058;-76
2023/01/27 00:51:04;;;;;;;15.45;4.30;;;;;;;;;;4962644;28;20046;-77
2023/01/27 00:53:31;;;;;;;15.60;4.93;;;;;;;;;;4975791;28;20074;-76
2023/01/27 00:55:59;;;;;;;18.48;4.88;;;;;;;;;;4970038;28;20057;-75
2023/01/27 00:58:26;;;;;;;11.63;4.50;;;;;;;;;;4962147;28;20071;-78
2023/01/27 01:00:55;;;;;;;16.02;3.92;;;;;;;;;;4963801;28;20050;-76
2023/01/27 01:03:23;;;;;;;15.80;3.50;;;;;;;;;;4965102;28;20074;-77
2023/01/27 01:05:50;;;;;;;11.60;3.17;;;;;;;;;;4961010;28;20414;-76
2023/01/27 01:08:18;;;;;;;13.80;3.47;;;;;;;;;;4963452;28;20383;-75
2023/01/27 01:10:45;;;;;;;18.23;3.70;;;;;;;;;;4969729;28;20070;-78
2023/01/27 01:13:13;;;;;;;18.83;3.40;;;;;;;;;;4968693;28;20052;-77
2023/01/27 01:15:41;;;;;;;22.45;3.72;;;;;;;;;;4970306;28;20094;-77
2023/01/27 01:18:10;;;;;;;12.30;3.40;;;;;;;;;;4962810;28;20575;-77
2023/01/27 01:20:38;;;;;;;17.55;3.40;;;;;;;;;;4969506;28;20054;-77
2023/01/27 01:23:05;;;;;;;12.82;2.95;;;;;;;;;;4975064;28;20069;-76
2023/01/27 01:25:32;;;;;;;14.88;2.90;;;;;;;;;;4967926;28;20073;-76
2023/01/27 01:28:00;;;;;;;24.23;3.67;;;;;;;;;;4936854;29;20061;-73
2023/01/27 01:30:27;;;;;;;16.90;3.28;;;;;;;;;;4955387;28;20058;-76
2023/01/27 01:32:55;;;;;;;20.75;2.67;;;;;;;;;;4955981;28;20051;-76
2023/01/27 01:35:24;;;;;;;13.30;2.95;;;;;;;;;;4938340;29;20498;-78
2023/01/27 01:37:52;;;;;;;15.63;3.22;;;;;;;;;;4953365;28;20140;-77
2023/01/27 01:40:19;;;;;;;13.63;2.50;;;;;;;;;;4947314;29;20055;-77
2023/01/27 01:42:50;;;;;;;25.58;3.10;;;;;;;;;;4930510;29;20062;-73
2023/01/27 01:45:41;;;;;;;7.07;2.13;;;;;;;;;;4948674;28;20090;-77
2023/01/27 01:48:11;;;;;;;14.13;2.55;;;;;;;;;;4927530;28;20139;-77
2023/01/27 01:50:40;;;;;;;11.70;2.13;;;;;;;;;;4946120;28;20046;-76
2023/01/27 01:53:08;;;;;;;14.10;2.50;;;;;;;;;;4924547;29;20047;-75
2023/01/27 01:55:37;;;;;;;15.07;2.50;;;;;;;;;;4943137;29;20398;-76
2023/01/27 01:58:05;;;;;;;16.27;2.65;;;;;;;;;;4943800;28;20495;-76
2023/01/27 02:00:32;;;;;;;9.20;2.17;;;;;;;;;;4937982;28;20051;-75
2023/01/27 02:02:59;;;;;;;17.60;2.72;;;;;;;;;;4935797;29;20056;-77
2023/01/27 02:05:28;;;;;;;15.55;2.30;;;;;;;;;;4932851;29;20052;-77
2023/01/27 02:07:58;;;;;;;12.60;2.45;;;;;;;;;;4936547;29;20434;-77
2023/01/27 02:10:25;;;;;;;12.32;2.10;;;;;;;;;;4939301;28;20059;-77
2023/01/27 02:12:53;;;;;;;10.05;2.15;;;;;;;;;;4927744;28;20051;-77
2023/01/27 02:15:21;;;;;;;14.68;2.15;;;;;;;;;;4943403;28;20062;-73
2023/01/27 02:17:48;;;;;;;13.32;2.10;;;;;;;;;;4945393;28;20055;-77
2023/01/27 02:20:20;;;;;;;10.93;1.60;;;;;;;;;;4942917;28;20047;-72
2023/01/27 02:22:49;;;;;;;7.47;1.73;;;;;;;;;;4939494;28;20055;-75
2023/01/27 02:25:20;;;;;;;7.97;1.70;;;;;;;;;;4931397;29;20051;-77
2023/01/27 02:27:49;;;;;;;9.85;2.47;;;;;;;;;;4967913;28;20063;-76
2023/01/27 02:30:16;;;;;;;7.78;1.70;;;;;;;;;;4966052;28;20457;-77
2023/01/27 02:32:44;;;;;;;12.43;1.50;;;;;;;;;;4965618;28;20536;-78
2023/01/27 02:35:15;;;;;;;8.45;1.45;;;;;;;;;;4965665;28;20090;-76
2023/01/27 02:37:43;;;;;;;12.45;1.88;;;;;;;;;;4965350;28;20054;-77
2023/01/27 02:40:11;;;;;;;9.73;1.50;;;;;;;;;;4963925;28;20051;-76
2023/01/27 02:42:38;;;;;;;9.93;1.15;;;;;;;;;;4961558;28;20498;-77
2023/01/27 02:45:07;;;;;;;7.05;1.40;;;;;;;;;;4966744;28;20047;-76
2023/01/27 02:47:35;;;;;;;10.13;1.77;;;;;;;;;;4962900;28;20050;-76
2023/01/27 02:50:02;;;;;;;6.57;1.25;;;;;;;;;;4959586;28;20046;-76
2023/01/27 02:52:29;;;;;;;7.72;1.50;;;;;;;;;;4968626;28;20076;-77
2023/01/27 02:54:56;;;;;;;8.70;1.20;;;;;;;;;;4967461;28;20061;-76
2023/01/27 02:57:24;;;;;;;10.65;1.38;;;;;;;;;;4968311;28;20057;-76
2023/01/27 02:59:51;;;;;;;11.05;1.63;;;;;;;;;;4962968;28;20145;-75
2023/01/27 03:02:21;;;;;;;10.35;1.40;;;;;;;;;;4963518;28;20062;-76
2023/01/27 03:04:49;;;;;;;6.40;1.27;;;;;;;;;;4966107;28;20050;-76
2023/01/27 03:07:16;;;;;;;8.77;1.45;;;;;;;;;;4965962;28;20066;-77
2023/01/27 03:09:43;;;;;;;6.32;1.10;;;;;;;;;;4967629;28;20043;-77
2023/01/27 03:12:19;;;;;;;4.47;0.90;;;;;;;;;;4969140;28;20046;-77
2023/01/27 03:20:18;;;;;;;5.43;0.88;;;;;;;;;;4964248;28;20042;-76
2023/01/27 03:22:45;;;;;;;6.63;1.00;;;;;;;;;;4970513;28;20058;-77
2023/01/27 03:25:12;;;;;;;6.70;1.25;;;;;;;;;;4970353;28;20049;-68
2023/01/27 03:27:40;;;;;;;5.68;1.00;;;;;;;;;;4963857;28;20051;-77
2023/01/27 03:30:08;;;;;;;4.30;1.17;;;;;;;;;;4968684;28;20061;-77
2023/01/27 03:32:37;;;;;;;10.43;1.70;;;;;;;;;;4971931;28;20050;-77
2023/01/27 03:35:04;;;;;;;7.82;1.42;;;;;;;;;;4964848;28;20053;-74
2023/01/27 03:48:35;;;;;;;8.65;1.23;;;;;;;;;;4969030;28;20514;-76
2023/01/27 03:51:04;;;;;;;8.80;2.90;;;;;;;;;;4969364;28;20399;-77
2023/01/27 03:53:31;;;;;;;6.75;1.27;;;;;;;;;;4967312;28;20054;-77
2023/01/27 03:55:58;;;;;;;9.27;1.60;;;;;;;;;;4971154;28;20047;-77
2023/01/27 03:58:26;;;;;;;3.90;1.25;;;;;;;;;;4972121;28;20116;-77
2023/01/27 04:00:54;;;;;;;7.78;1.52;;;;;;;;;;4970275;28;20050;-77
2023/01/27 04:08:55;;;;;;;6.57;1.40;;;;;;;;;;4971479;28;20051;-77
2023/01/27 04:14:08;;;;;;;9.07;1.30;;;;;;;;;;4970069;28;20046;-76
2023/01/27 04:16:35;;;;;;;6.60;1.80;;;;;;;;;;4963525;28;20494;-74
2023/01/27 04:19:03;;;;;;;6.65;1.50;;;;;;;;;;4968351;28;20078;-77
2023/01/27 04:21:32;;;;;;;13.88;2.00;;;;;;;;;;4965217;28;20146;-77
2023/01/27 04:24:00;;;;;;;5.38;1.33;;;;;;;;;;4968073;28;20199;-76
2023/01/27 04:26:32;;;;;;;12.45;1.60;;;;;;;;;;4965881;28;20077;-77
2023/01/27 04:28:59;;;;;;;7.97;1.40;;;;;;;;;;4964734;28;20157;-77
2023/01/27 04:31:26;;;;;;;7.60;1.67;;;;;;;;;;4968816;28;20086;-77
2023/01/27 04:33:54;;;;;;;4.90;1.38;;;;;;;;;;4969276;28;20051;-76
2023/01/27 04:36:21;;;;;;;11.52;2.33;;;;;;;;;;4964507;28;20410;-77
2023/01/27 04:38:50;;;;;;;9.38;1.77;;;;;;;;;;4965091;28;20521;-75
2023/01/27 04:41:17;;;;;;;9.02;1.48;;;;;;;;;;4969727;28;20516;-77
2023/01/27 04:43:44;;;;;;;5.53;1.52;;;;;;;;;;4967654;28;20054;-75
2023/01/27 04:46:11;;;;;;;7.25;1.65;;;;;;;;;;4969087;28;20494;-76
2023/01/27 04:48:38;;;;;;;7.97;2.03;;;;;;;;;;4967826;28;20059;-77
2023/01/27 04:51:06;;;;;;;6.80;2.58;;;;;;;;;;4968469;28;20455;-76
2023/01/27 04:53:33;;;;;;;15.57;1.92;;;;;;;;;;4969758;28;20063;-69
2023/01/27 04:56:06;;;;;;;8.57;1.63;;;;;;;;;;4971808;28;20505;-77
2023/01/27 04:58:34;;;;;;;4.18;1.65;;;;;;;;;;4970314;28;20517;-72
2023/01/27 05:01:01;;;;;;;9.25;2.00;;;;;;;;;;4963729;28;20566;-76
2023/01/27 05:03:28;;;;;;;5.57;2.13;;;;;;;;;;4964840;28;20050;-77
2023/01/27 05:05:55;;;;;;;5.70;1.90;;;;;;;;;;4969920;28;20078;-77
2023/01/27 05:08:22;;;;;;;13.52;2.40;;;;;;;;;;4966123;28;20059;-76
2023/01/27 05:10:51;;;;;;;4.78;2.13;;;;;;;;;;4969298;28;20081;-77
2023/01/27 05:13:19;;;;;;;8.38;2.13;;;;;;;;;;4969373;28;20112;-77
2023/01/27 05:15:47;;;;;;;10.88;2.80;;;;;;;;;;4969633;28;20498;-75
2023/01/27 05:18:14;;;;;;;6.93;2.40;;;;;;;;;;4972075;28;20057;-77
2023/01/27 05:20:41;;;;;;;9.25;3.00;;;;;;;;;;4965987;28;20059;-75
2023/01/27 05:25:53;;;;;;;9.95;2.58;;;;;;;;;;4969873;28;20167;-77
2023/01/27 05:28:22;;;;;;;5.95;2.50;;;;;;;;;;4963518;28;20055;-76
2023/01/27 05:30:49;;;;;;;10.38;2.53;;;;;;;;;;4964383;28;20054;-74
2023/01/27 05:33:16;;;;;;;7.70;2.33;;;;;;;;;;4969998;28;20510;-74
2023/01/27 05:35:44;;;;;;;10.30;2.45;;;;;;;;;;4968372;28;20055;-77
2023/01/27 05:38:11;;;;;;;12.07;2.60;;;;;;;;;;4966334;28;20138;-77
2023/01/27 05:40:38;;;;;;;9.75;3.10;;;;;;;;;;4967323;28;20055;-77
2023/01/27 05:43:05;;;;;;;15.73;3.03;;;;;;;;;;4968527;28;20051;-75
2023/01/27 05:45:34;;;;;;;8.80;3.38;;;;;;;;;;4965721;28;20074;-77
2023/01/27 05:48:01;;;;;;;11.40;3.28;;;;;;;;;;4970169;28;20058;-77
2023/01/27 05:50:28;;;;;;;6.43;2.63;;;;;;;;;;4968500;28;20058;-76
2023/01/27 05:52:56;;;;;;;13.07;2.70;;;;;;;;;;4969445;28;20058;-77
2023/01/27 05:55:23;;;;;;;14.75;3.03;;;;;;;;;;4969000;28;20053;-72
2023/01/27 05:57:50;;;;;;;11.88;3.30;;;;;;;;;;4965125;28;20053;-75
2023/01/27 06:00:18;;;;;;;9.43;2.85;;;;;;;;;;4958460;28;20494;-75
2023/01/27 06:02:46;;;;;;;17.98;3.42;;;;;;;;;;4965137;28;20058;-77
2023/01/27 06:05:14;;;;;;;8.77;2.60;;;;;;;;;;4964795;28;20051;-77
2023/01/27 06:07:41;;;;;;;8.65;2.08;;;;;;;;;;4966257;28;20414;-76
2023/01/27 06:10:09;;;;;;;6.45;1.67;;;;;;;;;;4958071;28;20051;-76
2023/01/27 06:12:36;;;;;;;8.55;1.58;;;;;;;;;;4964029;28;20117;-76
2023/01/27 06:15:03;;;;;;;4.53;1.73;;;;;;;;;;4966062;28;20141;-74
2023/01/27 06:17:31;;;;;;;4.25;1.65;;;;;;;;;;4965798;28;20047;-77
2023/01/27 06:19:59;;;;;;;7.40;1.60;;;;;;;;;;4959322;28;20078;-74
2023/01/27 06:22:26;;;;;;;9.02;1.35;;;;;;;;;;4962313;28;20109;-76
2023/01/27 06:24:54;;;;;;;5.95;2.50;;;;;;;;;;4964379;28;20066;-74
2023/01/27 06:27:21;;;;;;;7.57;1.20;;;;;;;;;;4962623;28;20058;-74
2023/01/27 06:29:48;;;;;;;5.15;1.30;;;;;;;;;;4960444;28;20288;-76
2023/01/27 06:32:15;;;;;;;9.65;1.20;;;;;;;;;;4964602;28;20055;-75
2023/01/27 06:34:43;;;;;;;7.60;1.35;;;;;;;;;;4972566;28;20090;-76
2023/01/27 06:37:11;;;;;;;6.30;1.25;;;;;;;;;;4966116;28;20398;-75
2023/01/27 06:39:39;;;;;;;3.90;0.68;;;;;;;;;;4964453;28;20054;-77
2023/01/27 06:42:06;;;;;;;5.53;0.70;;;;;;;;;;4964202;28;20046;-76
2023/01/27 06:44:33;;;;;;;9.75;1.38;;;;;;;;;;4966752;28;20134;-77
2023/01/27 06:47:00;;;;;;;4.38;0.77;;;;;;;;;;4960583;28;20047;-76
2023/01/27 06:49:28;;;;;;;6.43;0.90;;;;;;;;;;4963930;28;20049;-75
2023/01/27 06:51:55;;;;;;;8.73;1.10;;;;;;;;;;4967674;28;20046;-76
2023/01/27 06:54:23;;;;;;;5.28;0.73;;;;;;;;;;4963904;28;20046;-76
2023/01/27 06:56:51;;;;;;;3.42;0.57;;;;;;;;;;4965111;28;20061;-76
2023/01/27 06:59:18;;;;;;;4.25;0.77;;;;;;;;;;4962258;28;20043;-76
2023/01/27 07:01:45;;;;;;;6.38;0.88;;;;;;;;;;4961084;28;20053;-76
2023/01/27 07:04:12;;;;;;;5.25;0.95;;;;;;;;;;4965093;28;20408;-75
2023/01/27 07:06:39;;;;;;;4.60;0.80;;;;;;;;;;4961708;28;20062;-76
2023/01/27 07:09:07;;;;;;;5.00;0.95;;;;;;;;;;4965394;28;20529;-76
2023/01/27 07:11:35;;;;;;;7.78;1.00;;;;;;;;;;4963523;28;20054;-76
2023/01/27 07:14:03;;;;;;;4.80;0.80;;;;;;;;;;4965575;28;20059;-76
2023/01/27 07:16:30;;;;;;;6.80;1.00;;;;;;;;;;4961570;28;20930;-76
2023/01/27 07:18:57;;;;;;;6.35;0.70;;;;;;;;;;4966278;28;20051;-76
2023/01/27 07:21:25;;;;;;;5.38;0.93;;;;;;;;;;4969089;28;20391;-76
2023/01/27 07:23:52;;;;;;;5.43;0.80;;;;;;;;;;4961604;28;20126;-76
2023/01/27 07:26:19;;;;;;;4.18;0.90;;;;;;;;;;4969092;28;20111;-76
2023/01/27 07:28:48;;;;;;;7.60;1.05;;;;;;;;;;4967809;28;20512;-74
2023/01/27 07:31:15;;;;;;;4.15;0.88;;;;;;;;;;4960308;28;20054;-76
2023/01/27 07:33:42;;;;;;;7.97;1.27;;;;;;;;;;4968941;28;20050;-76
2023/01/27 07:36:10;;;;;;;5.22;0.75;;;;;;;;;;4966075;28;20047;-76
2023/01/27 07:38:37;;;;;;;6.00;1.02;;;;;;;;;;4962801;28;20495;-76
2023/01/27 07:41:05;;;;;;;1.80;0.55;;;;;;;;;;4968113;28;20050;-74
2023/01/27 07:43:32;;;;;;;5.80;0.90;;;;;;;;;;4965245;28;20075;-76
2023/01/27 07:46:01;;;;;;;5.45;0.90;;;;;;;;;;4963881;28;20047;-75
2023/01/27 07:48:28;;;;;;;6.15;0.88;;;;;;;;;;4968232;28;20057;-75
2023/01/27 07:50:55;;;;;;;4.75;0.60;;;;;;;;;;4959345;28;20054;-75
2023/01/27 07:53:23;;;;;;;5.53;0.68;;;;;;;;;;4980738;28;20047;-73
2023/01/27 07:55:50;;;;;;;3.85;0.85;;;;;;;;;;4963634;28;20058;-76
2023/01/27 07:58:17;;;;;;;5.30;0.65;;;;;;;;;;4963936;28;20070;-74
2023/01/27 08:00:44;;;;;;;7.15;1.63;;;;;;;;;;4963409;28;20147;-76
2023/01/27 08:03:21;;;;;;;3.40;0.63;;;;;;;;;;4960951;28;20052;-72
2023/01/27 08:05:48;;;;;;;5.63;0.73;;;;;;;;;;4964758;28;20066;-75
2023/01/27 08:08:15;;;;;;;5.18;1.05;;;;;;;;;;4963014;28;20057;-76
2023/01/27 08:10:47;;;;;;;4.30;0.95;;;;;;;;;;4967447;28;20059;-76
2023/01/27 08:13:15;;;;;;;2.75;0.85;;;;;;;;;;4964621;28;20097;-76
2023/01/27 08:15:42;;;;;;;2.25;0.60;;;;;;;;;;4966735;28;20135;-76
2023/01/27 08:18:10;;;;;;;5.97;1.45;;;;;;;;;;4968872;28;20059;-73
2023/01/27 08:20:38;;;;;;;3.58;0.80;;;;;;;;;;4978796;28;20074;-76
2023/01/27 08:23:06;;;;;;;5.32;1.00;;;;;;;;;;4967112;28;20414;-76
2023/01/27 08:25:33;;;;;;;2.45;0.70;;;;;;;;;;4962089;28;20059;-76
2023/01/27 08:28:00;;;;;;;4.57;0.80;;;;;;;;;;4963989;28;20066;-76
2023/01/27 08:30:28;;;;;;;5.25;0.75;;;;;;;;;;4961320;28;20052;-75
2023/01/27 08:32:55;;;;;;;5.53;1.17;;;;;;;;;;4962624;28;20042;-76
2023/01/27 08:35:22;;;;;;;6.57;0.90;;;;;;;;;;4958887;28;20611;-75
2023/01/27 08:37:51;;;;;;;3.35;0.55;;;;;;;;;;4967332;28;20059;-73
2023/01/27 08:40:19;;;;;;;3.05;0.40;;;;;;;;;;4964048;28;20553;-76
2023/01/27 08:42:46;;;;;;;2.92;0.50;;;;;;;;;;4966351;28;20051;-75
2023/01/27 08:45:13;;;;;;;4.55;1.33;;;;;;;;;;4966175;28;20038;-76
2023/01/27 08:47:40;;;;;;;7.20;2.40;;;;;;;;;;4965952;28;20403;-76
2023/01/27 08:50:08;;;;;;;5.70;1.75;;;;;;;;;;4965162;28;20061;-76
2023/01/27 08:52:36;;;;;;;4.88;1.50;;;;;;;;;;4961735;28;20486;-75
2023/01/27 08:55:05;;;;;;;4.00;1.20;;;;;;;;;;4967666;28;20102;-77
2023/01/27 08:57:32;;;;;;;6.25;1.20;;;;;;;;;;4962807;28;20047;-74
2023/01/27 08:59:59;;;;;;;8.23;1.50;;;;;;;;;;4958809;28;20074;-76
2023/01/27 09:02:27;;;;;;;5.93;1.92;;;;;;;;;;4966903;28;20057;-76
2023/01/27 09:04:54;;;;;;;8.68;3.55;;;;;;;;;;4960423;28;20470;-75
2023/01/27 09:07:21;;;;;;;7.68;3.30;;;;;;;;;;4963236;28;20055;-76
2023/01/27 09:09:49;;;;;;;5.80;1.40;;;;;;;;;;4966924;28;20467;-73
2023/01/27 09:12:17;;;;;;;5.22;1.20;;;;;;;;;;4965111;28;20056;-76
2023/01/27 09:14:45;;;;;;;5.88;1.60;;;;;;;;;;4961586;28;20073;-75
2023/01/27 09:17:15;;;;;;;1.88;0.50;;;;;;;;;;4967770;28;20498;-76
2023/01/27 09:19:43;;;;;;;6.78;0.73;;;;;;;;;;4963804;28;20055;-76
2023/01/27 09:22:10;;;;;;;3.78;0.70;;;;;;;;;;4957697;28;20053;-76
2023/01/27 09:24:37;;;;;;;2.78;0.57;;;;;;;;;;4961023;28;20054;-74
2023/01/27 09:27:06;;;;;;;4.13;0.70;;;;;;;;;;4963765;28;20062;-74
2023/01/27 09:29:35;;;;;;;3.13;0.73;;;;;;;;;;4958373;28;20050;-76
2023/01/27 09:32:02;;;;;;;3.83;0.68;;;;;;;;;;4964559;28;20074;-76
2023/01/27 09:34:30;;;;;;;2.75;0.88;;;;;;;;;;4957130;28;20058;-75
2023/01/27 09:37:00;;;;;;;2.50;0.77;;;;;;;;;;4956752;28;20081;-76
2023/01/27 09:39:28;;;;;;;3.53;0.70;;;;;;;;;;4959178;28;20055;-74
2023/01/27 09:42:10;;;;;;;1.95;0.60;;;;;;;;;;4957995;28;20054;-76
2023/01/27 09:44:47;;;;;;;5.03;0.75;;;;;;;;;;4960129;28;20087;-75
2023/01/27 09:47:24;;;;;;;3.45;0.90;;;;;;;;;;4958521;28;20082;-74
2023/01/27 09:50:01;;;;;;;3.42;0.60;;;;;;;;;;4957754;28;20058;-76
2023/01/27 09:52:44;;;;;;;3.47;0.50;;;;;;;;;;4978679;28;20066;-76
2023/01/27 09:55:15;;;;;;;5.47;0.60;;;;;;;;;;4956034;28;20062;-74
2023/01/27 09:57:49;;;;;;;2.83;0.60;;;;;;;;;;4960628;28;20055;-75
2023/01/27 10:00:16;;;;;;;;;;;;;;;;;;4962138;28;20047;-72
2023/01/27 10:02:54;;;;;;;1.23;0.38;;;;;;;;;;4961506;28;19936;-77
2023/01/27 10:05:32;;;;;;;4.05;0.45;;;;;;;;;;4959649;28;20046;-76
2023/01/27 10:08:05;;;;;;;2.60;0.52;;;;;;;;;;4959126;28;20051;-74
2023/01/27 10:10:32;;;;;;;;;;;;;;;;;;4962949;28;20671;-76
2023/01/27 10:13:06;;;;;;;2.22;0.47;;;;;;;;;;4958722;28;19929;-75
2023/01/27 10:15:42;;;;;;;0.90;0.40;;;;;;;;;;4957553;28;20058;-77
2023/01/27 10:18:17;;;;;;;3.42;0.40;;;;;;;;;;4962052;28;20864;-75
2023/01/27 10:20:48;;;;;;;5.70;0.30;;;;;;;;;;4964111;28;20054;-75
2023/01/27 10:23:23;;;;;;;4.43;0.60;;;;;;;;;;4965651;28;20047;-77
2023/01/27 10:25:55;;;;;;;2.33;0.50;;;;;;;;;;4960418;28;20047;-77
2023/01/27 10:28:24;;;;;;;2.15;0.50;;;;;;;;;;4960965;28;20055;-76
2023/01/27 10:30:55;;;;;;;3.13;0.50;;;;;;;;;;4956048;28;20057;-77
2023/01/27 10:33:27;;;;;;;5.28;0.40;;;;;;;;;;4965493;28;20043;-76
2023/01/27 10:35:57;;;;;;;2.33;0.38;;;;;;;;;;4956355;28;20537;-76
2023/01/27 10:38:31;;;;;;;2.78;0.35;;;;;;;;;;4964875;28;20149;-75
2023/01/27 10:41:02;;;;;;;1.75;0.50;;;;;;;;;;4956918;28;20438;-77
2023/01/27 10:43:34;;;;;;;2.63;0.38;;;;;;;;;;4957648;28;20054;-75
2023/01/27 10:46:08;;;;;;;2.03;0.20;;;;;;;;;;4971145;28;20117;-77
2023/01/27 10:48:42;;;;;;;3.17;0.35;;;;;;;;;;4961959;28;20051;-76
2023/01/27 10:51:11;;;;;;;1.35;0.17;;;;;;;;;;4963526;28;20562;-72
2023/01/27 10:53:41;;;;;;;1.73;0.30;;;;;;;;;;4959438;28;20049;-77
2023/01/27 10:56:12;;;;;;;2.83;0.50;;;;;;;;;;4962738;28;20095;-72
2023/01/27 10:58:48;;;;;;;2.15;0.30;;;;;;;;;;4958338;28;20131;-77
2023/01/27 11:01:18;;;;;;;3.95;0.20;;;;;;;;;;4960473;28;20069;-77
2023/01/27 11:03:48;;;;;;;2.53;0.50;;;;;;;;;;4958137;28;20050;-77
2023/01/27 11:06:16;;;;;;;1.90;0.20;;;;;;;;;;4962167;28;20147;-77
2023/01/27 11:08:46;;;;;;;1.58;0.22;;;;;;;;;;4956359;28;20126;-76
2023/01/27 11:14:03;;;;;;;2.95;0.40;;;;;;;;;;4960679;28;20047;-73
2023/01/27 11:16:33;;;;;;;2.05;0.40;;;;;;;;;;4962998;28;20109;-70
2023/01/27 11:19:06;;;;;;;0.90;0.20;;;;;;;;;;4956437;28;20051;-75
2023/01/27 11:21:33;;;;;;;0.73;0.25;;;;;;;;;;4961695;28;20051;-76
2023/01/27 11:24:06;;;;;;;3.78;0.50;;;;;;;;;;4962763;28;20704;-74
2023/01/27 11:26:39;;;;;;;2.58;0.32;;;;;;;;;;4965431;28;20051;-76
2023/01/27 11:29:10;;;;;;;1.65;0.43;;;;;;;;;;4963597;28;20047;-77
2023/01/27 11:31:39;;;;;;;4.43;0.35;;;;;;;;;;4964330;28;20088;-71
2023/01/27 11:34:12;;;;;;;1.05;0.17;;;;;;;;;;4966153;28;20055;-76
2023/01/27 11:36:39;;;;;;;2.25;0.38;;;;;;;;;;4961649;28;20050;-76
2023/01/27 11:39:07;;;;;;;1.52;0.22;;;;;;;;;;4964944;28;20134;-75
2023/01/27 11:41:36;;;;;;;2.85;0.40;;;;;;;;;;4963273;28;20054;-77
2023/01/27 11:44:07;;;;;;;2.30;0.20;;;;;;;;;;4966510;28;20044;-75
2023/01/27 11:46:35;;;;;;;0.75;0.30;;;;;;;;;;4964801;28;20050;-77
2023/01/27 11:49:02;;;;;;;4.53;0.65;;;;;;;;;;4967711;28;20122;-77
2023/01/27 11:51:36;;;;;;;2.90;0.47;;;;;;;;;;4970808;28;20046;-77
2023/01/27 11:54:03;;;;;;;;;;;;;;;;;;4967374;28;20054;-77
2023/01/27 11:56:30;;;;;;;2.25;0.40;;;;;;;;;;4971295;28;19926;-77
2023/01/27 11:59:01;;;;;;;3.22;0.40;;;;;;;;;;4968710;28;20062;-77
2023/01/27 12:01:35;;;;;;;2.97;0.50;;;;;;;;;;4981162;28;20055;-76
2023/01/27 12:04:06;;;;;;;3.00;1.02;;;;;;;;;;4965191;28;20046;-71
2023/01/27 12:06:36;;;;;;;6.40;1.48;;;;;;;;;;4971043;28;20596;-77
2023/01/27 12:09:03;;;;;;;7.65;2.10;;;;;;;;;;4967169;28;20059;-76
2023/01/27 12:11:32;;;;;;;7.32;2.10;;;;;;;;;;4967024;28;20051;-76
2023/01/27 12:14:00;;;;;;;11.30;2.53;;;;;;;;;;4966440;28;20050;-76
2023/01/27 12:16:32;;;;;;;1.73;0.70;;;;;;;;;;4964000;28;20055;-76
2023/01/27 12:19:02;;;;;;;3.33;0.70;;;;;;;;;;4964965;28;20047;-76
2023/01/27 12:21:46;;;;;;;4.10;0.65;;;;;;;;;;4969511;28;20055;-75
2023/01/27 12:24:18;;;;;;;2.10;0.38;;;;;;;;;;4968366;28;20129;-77
2023/01/27 12:26:46;;;;;;;3.05;0.40;;;;;;;;;;4970498;28;20055;-71
2023/01/27 12:29:17;;;;;;;2.10;0.40;;;;;;;;;;4954101;29;20047;-76
2023/01/27 12:31:45;;;;;;;2.08;0.40;;;;;;;;;;4933151;29;20061;-76
2023/01/27 12:34:27;;;;;;;1.45;0.35;;;;;;;;;;4950157;29;20522;-77
2023/01/27 12:36:57;;;;;;;4.18;0.73;;;;;;;;;;4936950;29;20047;-76
2023/01/27 12:39:27;;;;;;;4.40;0.75;;;;;;;;;;4948985;28;20046;-76
2023/01/27 12:41:55;;;;;;;3.42;0.82;;;;;;;;;;4923477;29;20051;-76
2023/01/27 12:44:22;;;;;;;2.63;0.40;;;;;;;;;;4950054;28;20051;-76
2023/01/27 12:46:57;;;;;;;3.03;0.52;;;;;;;;;;4943891;29;20083;-76
2023/01/27 12:49:25;;;;;;;3.15;0.40;;;;;;;;;;4950471;29;20058;-76
2023/01/27 12:51:55;;;;;;;3.60;0.50;;;;;;;;;;4947479;29;20051;-76
2023/01/27 12:54:26;;;;;;;2.63;0.50;;;;;;;;;;4947925;28;20395;-74
2023/01/27 12:56:54;;;;;;;1.02;0.40;;;;;;;;;;4945168;29;20055;-76
2023/01/27 12:59:23;;;;;;;3.03;0.40;;;;;;;;;;4944297;28;20059;-76
2023/01/27 13:02:05;;;;;;;1.30;0.30;;;;;;;;;;4944291;28;20051;-76
2023/01/27 13:04:32;;;;;;;0.38;0.10;;;;;;;;;;4932995;29;20055;-75
2023/01/27 13:07:06;;;;;;;1.60;0.45;;;;;;;;;;4937033;29;20051;-73
2023/01/27 13:09:36;;;;;;;1.25;0.20;;;;;;;;;;4946171;29;20047;-76
2023/01/27 13:12:06;;;;;;;1.60;0.22;;;;;;;;;;4949308;29;20059;-76
2023/01/27 13:14:35;;;;;;;1.63;0.30;;;;;;;;;;4934799;29;20047;-76
2023/01/27 13:17:03;;;;;;;0.45;0.10;;;;;;;;;;4950231;28;20053;-75
2023/01/27 13:19:36;;;;;;;0.88;0.30;;;;;;;;;;4934807;29;20058;-76
2023/01/27 13:22:03;;;;;;;0.90;0.20;;;;;;;;;;4955988;28;20526;-75
2023/01/27 13:24:34;;;;;;;2.72;0.35;;;;;;;;;;4949284;28;20062;-74
2023/01/27 13:27:04;;;;;;;1.80;0.28;;;;;;;;;;4952843;28;20058;-75
2023/01/27 13:29:32;;;;;;;1.20;0.40;;;;;;;;;;4962501;28;20051;-76
2023/01/27 13:32:04;;;;;;;0.52;0.20;;;;;;;;;;4965228;28;20050;-76
2023/01/27 13:34:35;;;;;;;0.57;0.20;;;;;;;;;;4966982;28;20055;-76
2023/01/27 13:37:04;;;;;;;0.45;0.20;;;;;;;;;;4965110;28;20062;-76
2023/01/27 13:39:42;;;;;;;0.82;0.20;;;;;;;;;;4966497;28;20085;-75
2023/01/27 13:42:13;;;;;;;3.30;0.70;;;;;;;;;;4961509;28;20070;-76
2023/01/27 13:44:43;;;;;;;1.35;0.50;;;;;;;;;;4972286;28;20047;-76
2023/01/27 13:47:15;;;;;;;1.60;0.20;;;;;;;;;;4968699;28;20062;-76
2023/01/27 13:49:44;;;;;;;0.32;0.20;;;;;;;;;;4967010;28;20314;-76
2023/01/27 13:52:12;;;;;;;1.50;0.30;;;;;;;;;;4969486;28;20399;-76
2023/01/27 13:54:39;;;;;;;2.95;0.38;;;;;;;;;;4969986;28;20082;-76
2023/01/27 13:57:23;;;;;;;0.93;0.20;;;;;;;;;;4968221;28;20395;-76
2023/01/27 13:59:57;;;;;;;0.30;0.10;;;;;;;;;;4968031;28;20490;-76
2023/01/27 14:02:34;;;;;;;0.75;0.40;;;;;;;;;;4969758;28;20062;-76
2023/01/27 14:05:09;;;;;;;0.25;0.10;;;;;;;;;;4963186;28;20438;-76
2023/01/27 14:07:39;;;;;;;2.28;0.43;;;;;;;;;;4970547;28;20054;-75
2023/01/27 14:10:16;;;;;;;1.15;0.20;;;;;;;;;;4966402;28;20042;-76
2023/01/27 14:12:51;;;;;;;0.20;0.13;;;;;;;;;;4968436;28;20051;-76
2023/01/27 14:15:23;;;;;;;1.70;0.10;;;;;;;;;;4969023;28;20502;-76
2023/01/27 14:17:55;;;;;;;0.32;0.20;;;;;;;;;;4965264;28;20508;-76
2023/01/27 14:20:28;;;;;;;1.40;0.20;;;;;;;;;;4970317;28;20043;-76
2023/01/27 14:22:59;;;;;;;1.38;0.30;;;;;;;;;;4973329;28;20055;-76
2023/01/27 14:25:33;;;;;;;0.68;0.20;;;;;;;;;;4978113;28;20055;-71
2023/01/27 14:28:06;;;;;;;2.25;0.82;;;;;;;;;;4969922;28;20059;-77
2023/01/27 14:30:37;;;;;;;2.30;0.43;;;;;;;;;;4961989;28;20055;-76
2023/01/27 14:33:07;;;;;;;1.35;0.30;;;;;;;;;;4967910;28;20390;-75
2023/01/27 14:35:39;;;;;;;1.55;0.30;;;;;;;;;;4966471;28;20141;-74
2023/01/27 14:38:10;;;;;;;0.98;0.30;;;;;;;;;;4964724;28;20486;-76
2023/01/27 14:40:40;;;;;;;0.47;0.10;;;;;;;;;;4962204;28;20399;-76
2023/01/27 14:43:15;;;;;;;1.40;0.20;;;;;;;;;;4962047;28;20058;-77
2023/01/27 14:45:45;;;;;;;3.05;0.20;;;;;;;;;;4965887;28;20063;-75
2023/01/27 14:48:19;;;;;;;0.52;0.20;;;;;;;;;;4970993;28;20533;-75
2023/01/27 14:50:50;;;;;;;0.90;0.20;;;;;;;;;;4966618;28;20561;-75
2023/01/27 14:53:26;;;;;;;1.48;0.30;;;;;;;;;;4969036;28;20066;-76
2023/01/27 14:55:56;;;;;;;2.05;0.20;;;;;;;;;;4968599;28;20065;-77
2023/01/27 14:58:34;;;;;;;0.77;0.20;;;;;;;;;;4966212;28;20498;-75
2023/01/27 15:01:07;;;;;;;2.10;0.30;;;;;;;;;;4970096;28;20054;-76
2023/01/27 15:03:46;;;;;;;1.83;0.30;;;;;;;;;;4966715;28;20098;-76
2023/01/27 15:06:19;;;;;;;3.03;0.30;;;;;;;;;;4968785;28;20402;-76
2023/01/27 15:08:51;;;;;;;2.20;0.22;;;;;;;;;;4966523;28;20062;-71
2023/01/27 15:11:34;;;;;;;3.75;1.23;;;;;;;;;;4967002;28;20058;-75
2023/01/27 15:14:09;;;;;;;1.90;1.02;;;;;;;;;;4964134;28;20121;-76
2023/01/27 15:16:42;;;;;;;1.90;0.93;;;;;;;;;;4965325;28;20462;-76
2023/01/27 15:19:20;;;;;;;5.47;1.02;;;;;;;;;;4962070;28;20051;-76
2023/01/27 15:21:56;;;;;;;3.53;0.47;;;;;;;;;;4967865;28;20085;-76
2023/01/27 15:24:34;;;;;;;2.95;0.40;;;;;;;;;;4966236;28;20486;-76
2023/01/27 15:27:02;;;;;;;3.42;0.60;;;;;;;;;;4962183;28;20051;-76
2023/01/27 15:29:31;;;;;;;2.85;0.50;;;;;;;;;;4934723;29;20055;-76
2023/01/27 15:32:11;;;;;;;1.35;0.40;;;;;;;;;;4947719;29;20043;-76
2023/01/27 15:34:39;;;;;;;2.20;0.30;;;;;;;;;;4947587;29;20082;-76